Ash Ridge, Ohio
Current Conditions -  °F | °C
As of 3:35 PM on Saturday 25 Oct 2014 (Local Time) from KFGX Reporting Station
Broken Clouds Broken Clouds  
Wind Chill: 20°   Ceiling: 2500
Heat Index: 20°   Visibility: 10mi
Dew Point: 14°   Wind: 10mph
Humidity: 69%   Direction: 240°WSW
Pressure: 29.95"   Gusts: NA
Location:  38.8698°N, 83.9081°W
Report Text: KFGX 251935Z AUTO 24009KT 10SM BKN025 20/14 A2995 RMK AO2 T02000142
Loading
Personal Weather Stations






























Interactive Weather Map
Tropical Storm Tracking
New forecast layout! Learn more

10-Day Weather Forecast

Advertisements
Track Severe Weather on mobile